sensor_id;sensor_type;location;lat;lon;timestamp;temperature;humidity
65692;DHT22;52411;52.716;6.696;2022-09-09T00:01:30;14.40;99.90
65692;DHT22;52411;52.716;6.696;2022-09-09T00:04:05;14.40;99.90
65692;DHT22;52411;52.716;6.696;2022-09-09T00:07:15;14.40;99.90
65692;DHT22;52411;52.716;6.696;2022-09-09T00:09:52;14.30;99.90
65692;DHT22;52411;52.716;6.696;2022-09-09T00:12:24;14.20;99.90
65692;DHT22;52411;52.716;6.696;2022-09-09T00:15:07;14.10;99.90
65692;DHT22;52411;52.716;6.696;2022-09-09T00:17:55;14.00;99.90
65692;DHT22;52411;52.716;6.696;2022-09-09T00:20:45;14.10;99.90
65692;DHT22;52411;52.716;6.696;2022-09-09T00:25:54;14.00;99.90
65692;DHT22;52411;52.716;6.696;2022-09-09T00:28:26;14.00;99.90
65692;DHT22;52411;52.716;6.696;2022-09-09T00:30:53;14.00;99.90
65692;DHT22;52411;52.716;6.696;2022-09-09T00:33:23;14.00;99.90
65692;DHT22;52411;52.716;6.696;2022-09-09T00:35:56;14.00;99.90
65692;DHT22;52411;52.716;6.696;2022-09-09T00:38:42;14.00;99.90
65692;DHT22;52411;52.716;6.696;2022-09-09T00:41:38;14.00;99.90
65692;DHT22;52411;52.716;6.696;2022-09-09T00:44:20;14.10;99.90
65692;DHT22;52411;52.716;6.696;2022-09-09T00:57:38;14.60;99.90
65692;DHT22;52411;52.716;6.696;2022-09-09T01:00:19;14.60;99.90
65692;DHT22;52411;52.716;6.696;2022-09-09T01:05:17;14.70;99.90
65692;DHT22;52411;52.716;6.696;2022-09-09T01:07:47;14.70;99.90
65692;DHT22;52411;52.716;6.696;2022-09-09T01:10:45;14.80;99.90
65692;DHT22;52411;52.716;6.696;2022-09-09T01:13:24;14.80;99.90
65692;DHT22;52411;52.716;6.696;2022-09-09T01:15:50;14.90;99.90
65692;DHT22;52411;52.716;6.696;2022-09-09T01:18:21;15.00;99.90
65692;DHT22;52411;52.716;6.696;2022-09-09T01:26:24;15.00;99.90
65692;DHT22;52411;52.716;6.696;2022-09-09T01:28:51;15.00;99.90
65692;DHT22;52411;52.716;6.696;2022-09-09T01:31:29;15.00;99.90
65692;DHT22;52411;52.716;6.696;2022-09-09T01:33:55;15.00;99.90
65692;DHT22;52411;52.716;6.696;2022-09-09T01:36:47;14.90;99.90
65692;DHT22;52411;52.716;6.696;2022-09-09T01:39:11;14.90;99.90
65692;DHT22;52411;52.716;6.696;2022-09-09T01:41:38;14.90;99.90
65692;DHT22;52411;52.716;6.696;2022-09-09T01:44:05;14.90;99.90
65692;DHT22;52411;52.716;6.696;2022-09-09T01:46:31;14.90;99.90
65692;DHT22;52411;52.716;6.696;2022-09-09T01:48:57;14.80;99.90
65692;DHT22;52411;52.716;6.696;2022-09-09T01:51:24;14.90;99.90
65692;DHT22;52411;52.716;6.696;2022-09-09T01:53:50;14.80;99.90
65692;DHT22;52411;52.716;6.696;2022-09-09T01:59:04;14.80;99.90
65692;DHT22;52411;52.716;6.696;2022-09-09T02:04:23;14.80;99.90
65692;DHT22;52411;52.716;6.696;2022-09-09T02:06:55;14.80;99.90
65692;DHT22;52411;52.716;6.696;2022-09-09T02:09:24;14.70;99.90
65692;DHT22;52411;52.716;6.696;2022-09-09T02:12:08;14.70;99.90
65692;DHT22;52411;52.716;6.696;2022-09-09T02:14:41;14.70;99.90
65692;DHT22;52411;52.716;6.696;2022-09-09T02:17:14;14.70;99.90
65692;DHT22;52411;52.716;6.696;2022-09-09T02:19:52;14.70;99.90
65692;DHT22;52411;52.716;6.696;2022-09-09T02:22:22;14.70;99.90
65692;DHT22;52411;52.716;6.696;2022-09-09T02:24:49;14.70;99.90
65692;DHT22;52411;52.716;6.696;2022-09-09T02:27:18;14.70;99.90
65692;DHT22;52411;52.716;6.696;2022-09-09T02:29:45;14.70;99.90
65692;DHT22;52411;52.716;6.696;2022-09-09T02:32:15;14.70;99.90
65692;DHT22;52411;52.716;6.696;2022-09-09T02:34:45;14.80;99.90
65692;DHT22;52411;52.716;6.696;2022-09-09T02:37:15;14.70;99.90
65692;DHT22;52411;52.716;6.696;2022-09-09T02:39:42;14.80;99.90
65692;DHT22;52411;52.716;6.696;2022-09-09T02:42:08;14.80;99.90
65692;DHT22;52411;52.716;6.696;2022-09-09T02:44:35;14.80;99.90
65692;DHT22;52411;52.716;6.696;2022-09-09T02:53:09;14.80;99.90
65692;DHT22;52411;52.716;6.696;2022-09-09T02:55:43;14.70;99.90
65692;DHT22;52411;52.716;6.696;2022-09-09T02:58:13;14.80;99.90
65692;DHT22;52411;52.716;6.696;2022-09-09T03:00:44;14.80;99.90
65692;DHT22;52411;52.716;6.696;2022-09-09T03:03:11;14.80;99.90
65692;DHT22;52411;52.716;6.696;2022-09-09T03:05:37;14.80;99.90
65692;DHT22;52411;52.716;6.696;2022-09-09T03:08:04;14.80;99.90
65692;DHT22;52411;52.716;6.696;2022-09-09T03:10:31;14.70;99.90
65692;DHT22;52411;52.716;6.696;2022-09-09T03:12:57;14.70;99.90
65692;DHT22;52411;52.716;6.696;2022-09-09T03:15:23;14.70;99.90
65692;DHT22;52411;52.716;6.696;2022-09-09T03:17:48;14.70;99.90
65692;DHT22;52411;52.716;6.696;2022-09-09T03:20:14;14.70;99.90
65692;DHT22;52411;52.716;6.696;2022-09-09T03:22:40;14.70;99.90
65692;DHT22;52411;52.716;6.696;2022-09-09T03:25:06;14.60;99.90
65692;DHT22;52411;52.716;6.696;2022-09-09T03:27:32;14.60;99.90
65692;DHT22;52411;52.716;6.696;2022-09-09T03:29:58;14.60;99.90
65692;DHT22;52411;52.716;6.696;2022-09-09T03:32:24;14.60;99.90
65692;DHT22;52411;52.716;6.696;2022-09-09T03:34:51;14.60;99.90
65692;DHT22;52411;52.716;6.696;2022-09-09T03:37:18;14.60;99.90
65692;DHT22;52411;52.716;6.696;2022-09-09T03:39:43;14.60;99.90
65692;DHT22;52411;52.716;6.696;2022-09-09T03:42:12;14.60;99.90
65692;DHT22;52411;52.716;6.696;2022-09-09T03:44:39;14.60;99.90
65692;DHT22;52411;52.716;6.696;2022-09-09T03:47:06;14.70;99.90
65692;DHT22;52411;52.716;6.696;2022-09-09T03:49:32;14.70;99.90
65692;DHT22;52411;52.716;6.696;2022-09-09T03:51:57;14.70;99.90
65692;DHT22;52411;52.716;6.696;2022-09-09T03:54:25;14.70;99.90
65692;DHT22;52411;52.716;6.696;2022-09-09T03:56:51;14.70;99.90
65692;DHT22;52411;52.716;6.696;2022-09-09T03:59:17;14.80;99.90
65692;DHT22;52411;52.716;6.696;2022-09-09T04:01:42;14.70;99.90
65692;DHT22;52411;52.716;6.696;2022-09-09T04:04:08;14.80;99.90
65692;DHT22;52411;52.716;6.696;2022-09-09T04:06:34;14.80;99.90
65692;DHT22;52411;52.716;6.696;2022-09-09T04:09:00;14.80;99.90
65692;DHT22;52411;52.716;6.696;2022-09-09T04:11:29;14.70;99.90
65692;DHT22;52411;52.716;6.696;2022-09-09T04:13:54;14.70;99.90
65692;DHT22;52411;52.716;6.696;2022-09-09T04:16:20;14.70;99.90
65692;DHT22;52411;52.716;6.696;2022-09-09T04:18:46;14.70;99.90
65692;DHT22;52411;52.716;6.696;2022-09-09T04:21:12;14.70;99.90
65692;DHT22;52411;52.716;6.696;2022-09-09T04:23:38;14.70;99.90
65692;DHT22;52411;52.716;6.696;2022-09-09T04:26:04;14.70;99.90
65692;DHT22;52411;52.716;6.696;2022-09-09T04:28:32;14.70;99.90
65692;DHT22;52411;52.716;6.696;2022-09-09T04:31:05;14.70;99.90
65692;DHT22;52411;52.716;6.696;2022-09-09T04:33:31;14.70;99.90
65692;DHT22;52411;52.716;6.696;2022-09-09T04:35:57;14.60;99.90
65692;DHT22;52411;52.716;6.696;2022-09-09T04:38:22;14.60;99.90
65692;DHT22;52411;52.716;6.696;2022-09-09T04:40:49;14.60;99.90
65692;DHT22;52411;52.716;6.696;2022-09-09T04:43:15;14.60;99.90
65692;DHT22;52411;52.716;6.696;2022-09-09T04:45:42;14.50;99.90
65692;DHT22;52411;52.716;6.696;2022-09-09T04:48:08;14.50;99.90
65692;DHT22;52411;52.716;6.696;2022-09-09T04:50:35;14.50;99.90
65692;DHT22;52411;52.716;6.696;2022-09-09T04:53:05;14.40;99.90
65692;DHT22;52411;52.716;6.696;2022-09-09T04:55:31;14.40;99.90
65692;DHT22;52411;52.716;6.696;2022-09-09T04:57:57;14.40;99.90
65692;DHT22;52411;52.716;6.696;2022-09-09T05:00:24;14.40;99.90
65692;DHT22;52411;52.716;6.696;2022-09-09T05:02:49;14.40;99.90
65692;DHT22;52411;52.716;6.696;2022-09-09T05:05:15;14.40;99.90
65692;DHT22;52411;52.716;6.696;2022-09-09T05:07:41;14.30;99.90
65692;DHT22;52411;52.716;6.696;2022-09-09T05:10:08;14.30;99.90
65692;DHT22;52411;52.716;6.696;2022-09-09T05:12:33;14.30;99.90
65692;DHT22;52411;52.716;6.696;2022-09-09T05:14:59;14.30;99.90
65692;DHT22;52411;52.716;6.696;2022-09-09T05:17:25;14.20;99.90
65692;DHT22;52411;52.716;6.696;2022-09-09T05:19:50;14.20;99.90
65692;DHT22;52411;52.716;6.696;2022-09-09T05:22:20;14.20;99.90
65692;DHT22;52411;52.716;6.696;2022-09-09T05:24:46;14.20;99.90
65692;DHT22;52411;52.716;6.696;2022-09-09T05:27:12;14.20;99.90
65692;DHT22;52411;52.716;6.696;2022-09-09T05:29:38;14.20;99.90
65692;DHT22;52411;52.716;6.696;2022-09-09T05:32:04;14.30;99.90
65692;DHT22;52411;52.716;6.696;2022-09-09T05:34:30;14.30;99.90
65692;DHT22;52411;52.716;6.696;2022-09-09T05:36:55;14.40;99.90
65692;DHT22;52411;52.716;6.696;2022-09-09T05:39:21;14.40;99.90
65692;DHT22;52411;52.716;6.696;2022-09-09T05:41:47;14.40;99.90
65692;DHT22;52411;52.716;6.696;2022-09-09T05:44:12;14.40;99.90
65692;DHT22;52411;52.716;6.696;2022-09-09T05:46:39;14.50;99.90
65692;DHT22;52411;52.716;6.696;2022-09-09T05:49:05;14.60;99.90
65692;DHT22;52411;52.716;6.696;2022-09-09T05:51:31;14.70;99.90
65692;DHT22;52411;52.716;6.696;2022-09-09T05:53:57;14.80;99.90
65692;DHT22;52411;52.716;6.696;2022-09-09T05:56:27;14.80;99.90
65692;DHT22;52411;52.716;6.696;2022-09-09T05:58:53;15.00;99.90
65692;DHT22;52411;52.716;6.696;2022-09-09T06:03:48;15.00;99.90
65692;DHT22;52411;52.716;6.696;2022-09-09T06:06:21;15.00;99.90
65692;DHT22;52411;52.716;6.696;2022-09-09T06:08:50;15.10;99.90
65692;DHT22;52411;52.716;6.696;2022-09-09T06:11:22;15.10;99.90
65692;DHT22;52411;52.716;6.696;2022-09-09T06:13:48;15.20;99.90
65692;DHT22;52411;52.716;6.696;2022-09-09T06:16:18;15.20;99.90
65692;DHT22;52411;52.716;6.696;2022-09-09T06:18:44;15.20;99.90
65692;DHT22;52411;52.716;6.696;2022-09-09T06:21:23;15.30;99.90
65692;DHT22;52411;52.716;6.696;2022-09-09T06:23:49;15.30;99.90
65692;DHT22;52411;52.716;6.696;2022-09-09T06:26:29;15.30;99.90
65692;DHT22;52411;52.716;6.696;2022-09-09T06:28:56;15.30;99.90
65692;DHT22;52411;52.716;6.696;2022-09-09T06:31:28;15.40;99.90
65692;DHT22;52411;52.716;6.696;2022-09-09T06:33:56;15.40;99.90
65692;DHT22;52411;52.716;6.696;2022-09-09T06:38:49;15.50;99.90
65692;DHT22;52411;52.716;6.696;2022-09-09T06:41:17;15.50;99.90
65692;DHT22;52411;52.716;6.696;2022-09-09T06:43:44;15.60;99.90
65692;DHT22;52411;52.716;6.696;2022-09-09T06:46:15;15.60;99.90
65692;DHT22;52411;52.716;6.696;2022-09-09T06:48:42;15.60;99.90
65692;DHT22;52411;52.716;6.696;2022-09-09T06:51:19;15.70;99.90
65692;DHT22;52411;52.716;6.696;2022-09-09T06:53:47;15.80;99.90
65692;DHT22;52411;52.716;6.696;2022-09-09T06:56:20;15.90;99.90
65692;DHT22;52411;52.716;6.696;2022-09-09T06:58:47;15.90;99.90
65692;DHT22;52411;52.716;6.696;2022-09-09T07:01:19;16.00;99.90
65692;DHT22;52411;52.716;6.696;2022-09-09T07:03:46;16.00;99.90
65692;DHT22;52411;52.716;6.696;2022-09-09T07:06:18;16.10;99.90
65692;DHT22;52411;52.716;6.696;2022-09-09T07:08:54;16.20;99.90
65692;DHT22;52411;52.716;6.696;2022-09-09T07:11:21;16.30;99.90
65692;DHT22;52411;52.716;6.696;2022-09-09T07:13:48;16.40;99.90
65692;DHT22;52411;52.716;6.696;2022-09-09T07:16:16;16.40;99.90
65692;DHT22;52411;52.716;6.696;2022-09-09T07:18:42;16.40;99.90
65692;DHT22;52411;52.716;6.696;2022-09-09T07:21:10;16.50;99.90
65692;DHT22;52411;52.716;6.696;2022-09-09T07:23:38;16.40;99.90
65692;DHT22;52411;52.716;6.696;2022-09-09T07:26:24;16.40;99.90
65692;DHT22;52411;52.716;6.696;2022-09-09T07:28:50;16.40;99.90
65692;DHT22;52411;52.716;6.696;2022-09-09T07:31:25;16.30;99.90
65692;DHT22;52411;52.716;6.696;2022-09-09T07:33:52;16.30;99.90
65692;DHT22;52411;52.716;6.696;2022-09-09T07:36:26;16.40;99.90
65692;DHT22;52411;52.716;6.696;2022-09-09T07:38:57;16.40;99.90
65692;DHT22;52411;52.716;6.696;2022-09-09T07:41:26;16.40;99.90
65692;DHT22;52411;52.716;6.696;2022-09-09T07:43:53;16.50;99.90
65692;DHT22;52411;52.716;6.696;2022-09-09T07:46:24;16.50;99.90
65692;DHT22;52411;52.716;6.696;2022-09-09T07:48:55;16.50;99.90
65692;DHT22;52411;52.716;6.696;2022-09-09T07:51:30;16.50;99.90
65692;DHT22;52411;52.716;6.696;2022-09-09T07:54:08;16.70;99.90
65692;DHT22;52411;52.716;6.696;2022-09-09T07:56:35;16.70;99.90
65692;DHT22;52411;52.716;6.696;2022-09-09T07:59:01;16.80;99.90
65692;DHT22;52411;52.716;6.696;2022-09-09T08:01:31;16.90;99.90
65692;DHT22;52411;52.716;6.696;2022-09-09T08:03:59;16.90;99.90
65692;DHT22;52411;52.716;6.696;2022-09-09T08:06:28;17.10;99.90
65692;DHT22;52411;52.716;6.696;2022-09-09T08:08:54;17.30;99.90
65692;DHT22;52411;52.716;6.696;2022-09-09T08:11:21;17.40;99.90
65692;DHT22;52411;52.716;6.696;2022-09-09T08:13:50;17.60;99.90
65692;DHT22;52411;52.716;6.696;2022-09-09T08:16:18;17.60;99.90
65692;DHT22;52411;52.716;6.696;2022-09-09T08:18:50;17.80;99.90
65692;DHT22;52411;52.716;6.696;2022-09-09T08:21:22;17.90;99.90
65692;DHT22;52411;52.716;6.696;2022-09-09T08:23:50;18.10;99.90
65692;DHT22;52411;52.716;6.696;2022-09-09T08:26:22;18.20;99.90
65692;DHT22;52411;52.716;6.696;2022-09-09T08:28:51;18.30;99.90
65692;DHT22;52411;52.716;6.696;2022-09-09T08:31:22;18.20;99.90
65692;DHT22;52411;52.716;6.696;2022-09-09T08:33:49;18.20;99.90
65692;DHT22;52411;52.716;6.696;2022-09-09T08:36:22;18.20;99.90
65692;DHT22;52411;52.716;6.696;2022-09-09T08:38:49;18.10;99.90
65692;DHT22;52411;52.716;6.696;2022-09-09T08:43:47;18.10;99.90
65692;DHT22;52411;52.716;6.696;2022-09-09T08:46:27;18.30;99.90
65692;DHT22;52411;52.716;6.696;2022-09-09T08:51:49;18.40;99.90
65692;DHT22;52411;52.716;6.696;2022-09-09T08:54:16;18.50;99.90
65692;DHT22;52411;52.716;6.696;2022-09-09T08:56:42;18.70;99.90
65692;DHT22;52411;52.716;6.696;2022-09-09T08:59:11;18.90;99.90
65692;DHT22;52411;52.716;6.696;2022-09-09T09:07:33;18.70;99.90
65692;DHT22;52411;52.716;6.696;2022-09-09T09:10:17;18.70;99.90
65692;DHT22;52411;52.716;6.696;2022-09-09T09:12:46;18.80;99.90
65692;DHT22;52411;52.716;6.696;2022-09-09T09:15:30;18.80;99.90
65692;DHT22;52411;52.716;6.696;2022-09-09T09:17:56;19.00;99.90
65692;DHT22;52411;52.716;6.696;2022-09-09T09:21:03;19.10;99.90
65692;DHT22;52411;52.716;6.696;2022-09-09T09:23:43;19.10;99.90
65692;DHT22;52411;52.716;6.696;2022-09-09T09:26:11;19.20;99.90
65692;DHT22;52411;52.716;6.696;2022-09-09T09:28:42;19.00;99.90
65692;DHT22;52411;52.716;6.696;2022-09-09T09:31:10;18.80;99.90
65692;DHT22;52411;52.716;6.696;2022-09-09T09:33:52;18.70;99.90
65692;DHT22;52411;52.716;6.696;2022-09-09T09:36:40;18.70;99.90
65692;DHT22;52411;52.716;6.696;2022-09-09T09:39:04;18.80;99.90
65692;DHT22;52411;52.716;6.696;2022-09-09T09:43:58;18.90;99.90
65692;DHT22;52411;52.716;6.696;2022-09-09T09:46:25;18.90;99.90
65692;DHT22;52411;52.716;6.696;2022-09-09T09:49:01;19.00;99.90
65692;DHT22;52411;52.716;6.696;2022-09-09T09:51:29;19.10;99.90
65692;DHT22;52411;52.716;6.696;2022-09-09T09:56:39;19.30;99.90
65692;DHT22;52411;52.716;6.696;2022-09-09T09:59:05;19.40;99.90
65692;DHT22;52411;52.716;6.696;2022-09-09T10:01:38;19.40;99.90
65692;DHT22;52411;52.716;6.696;2022-09-09T10:04:16;19.20;99.90
65692;DHT22;52411;52.716;6.696;2022-09-09T10:06:44;19.40;99.90
65692;DHT22;52411;52.716;6.696;2022-09-09T10:09:29;19.50;99.90
65692;DHT22;52411;52.716;6.696;2022-09-09T10:14:39;19.60;99.90
65692;DHT22;52411;52.716;6.696;2022-09-09T10:17:24;19.70;99.90
65692;DHT22;52411;52.716;6.696;2022-09-09T10:22:49;19.50;99.90
65692;DHT22;52411;52.716;6.696;2022-09-09T10:36:20;19.20;99.90
65692;DHT22;52411;52.716;6.696;2022-09-09T10:38:52;19.20;99.90
65692;DHT22;52411;52.716;6.696;2022-09-09T10:41:42;19.20;99.90
65692;DHT22;52411;52.716;6.696;2022-09-09T10:47:16;19.70;99.90
65692;DHT22;52411;52.716;6.696;2022-09-09T10:52:22;20.00;99.90
65692;DHT22;52411;52.716;6.696;2022-09-09T10:59:52;20.00;99.90
65692;DHT22;52411;52.716;6.696;2022-09-09T11:02:30;20.00;99.90
65692;DHT22;52411;52.716;6.696;2022-09-09T11:05:16;20.00;99.90
65692;DHT22;52411;52.716;6.696;2022-09-09T11:07:50;20.10;99.90
65692;DHT22;52411;52.716;6.696;2022-09-09T11:10:33;20.20;99.90
65692;DHT22;52411;52.716;6.696;2022-09-09T11:13:03;20.20;99.90
65692;DHT22;52411;52.716;6.696;2022-09-09T11:15:39;20.20;99.90
65692;DHT22;52411;52.716;6.696;2022-09-09T11:18:10;20.30;99.90
65692;DHT22;52411;52.716;6.696;2022-09-09T11:20:38;20.20;99.90
65692;DHT22;52411;52.716;6.696;2022-09-09T11:23:13;20.30;99.90
65692;DHT22;52411;52.716;6.696;2022-09-09T11:25:50;20.40;99.90
65692;DHT22;52411;52.716;6.696;2022-09-09T11:28:25;20.60;99.90
65692;DHT22;52411;52.716;6.696;2022-09-09T11:31:14;20.50;99.90
65692;DHT22;52411;52.716;6.696;2022-09-09T11:36:48;20.00;99.90
65692;DHT22;52411;52.716;6.696;2022-09-09T11:42:16;20.10;99.90
65692;DHT22;52411;52.716;6.696;2022-09-09T11:44:43;20.20;99.90
65692;DHT22;52411;52.716;6.696;2022-09-09T11:47:25;20.50;99.90
65692;DHT22;52411;52.716;6.696;2022-09-09T11:50:22;20.80;99.90
65692;DHT22;52411;52.716;6.696;2022-09-09T11:53:04;21.00;99.90
65692;DHT22;52411;52.716;6.696;2022-09-09T11:55:33;21.10;99.90
65692;DHT22;52411;52.716;6.696;2022-09-09T11:58:06;21.20;99.90
65692;DHT22;52411;52.716;6.696;2022-09-09T12:00:47;21.10;99.90
65692;DHT22;52411;52.716;6.696;2022-09-09T12:03:35;21.20;99.90
65692;DHT22;52411;52.716;6.696;2022-09-09T12:06:24;21.60;99.90
65692;DHT22;52411;52.716;6.696;2022-09-09T12:08:56;21.70;99.90
65692;DHT22;52411;52.716;6.696;2022-09-09T12:11:29;21.70;99.90
65692;DHT22;52411;52.716;6.696;2022-09-09T12:13:58;21.80;99.90
65692;DHT22;52411;52.716;6.696;2022-09-09T12:16:34;21.80;99.90
65692;DHT22;52411;52.716;6.696;2022-09-09T12:19:19;21.40;99.90
65692;DHT22;52411;52.716;6.696;2022-09-09T12:22:11;21.30;99.90
65692;DHT22;52411;52.716;6.696;2022-09-09T12:24:55;21.20;99.90
65692;DHT22;52411;52.716;6.696;2022-09-09T12:27:33;21.10;99.90
65692;DHT22;52411;52.716;6.696;2022-09-09T12:30:15;21.10;99.90
65692;DHT22;52411;52.716;6.696;2022-09-09T12:32:41;21.20;99.90
65692;DHT22;52411;52.716;6.696;2022-09-09T12:35:11;21.20;99.90
65692;DHT22;52411;52.716;6.696;2022-09-09T12:40:29;20.90;99.90
65692;DHT22;52411;52.716;6.696;2022-09-09T12:42:55;20.60;99.90
65692;DHT22;52411;52.716;6.696;2022-09-09T12:45:23;20.10;99.90
65692;DHT22;52411;52.716;6.696;2022-09-09T12:48:08;19.60;99.90
65692;DHT22;52411;52.716;6.696;2022-09-09T12:50:57;19.40;99.90
65692;DHT22;52411;52.716;6.696;2022-09-09T12:53:35;19.30;99.90
65692;DHT22;52411;52.716;6.696;2022-09-09T12:56:09;19.30;99.90
65692;DHT22;52411;52.716;6.696;2022-09-09T12:58:46;19.40;99.90
65692;DHT22;52411;52.716;6.696;2022-09-09T13:01:28;19.60;99.90
65692;DHT22;52411;52.716;6.696;2022-09-09T13:03:55;19.70;99.90
65692;DHT22;52411;52.716;6.696;2022-09-09T13:06:29;19.90;99.90
65692;DHT22;52411;52.716;6.696;2022-09-09T13:08:57;20.30;99.90
65692;DHT22;52411;52.716;6.696;2022-09-09T13:11:41;20.70;99.90
65692;DHT22;52411;52.716;6.696;2022-09-09T13:14:35;21.10;99.90
65692;DHT22;52411;52.716;6.696;2022-09-09T13:17:04;21.40;99.90
65692;DHT22;52411;52.716;6.696;2022-09-09T13:19:34;21.50;99.90
65692;DHT22;52411;52.716;6.696;2022-09-09T13:22:11;21.40;99.90
65692;DHT22;52411;52.716;6.696;2022-09-09T13:24:38;21.40;99.90
65692;DHT22;52411;52.716;6.696;2022-09-09T13:27:21;21.00;99.90
65692;DHT22;52411;52.716;6.696;2022-09-09T13:29:53;20.60;99.90
65692;DHT22;52411;52.716;6.696;2022-09-09T13:32:24;20.50;99.90
65692;DHT22;52411;52.716;6.696;2022-09-09T13:34:52;20.40;99.90
65692;DHT22;52411;52.716;6.696;2022-09-09T13:37:35;20.30;99.90
65692;DHT22;52411;52.716;6.696;2022-09-09T13:40:03;20.20;99.90
65692;DHT22;52411;52.716;6.696;2022-09-09T13:42:33;20.00;99.90
65692;DHT22;52411;52.716;6.696;2022-09-09T13:45:01;19.90;99.90
65692;DHT22;52411;52.716;6.696;2022-09-09T13:47:33;19.80;99.90
65692;DHT22;52411;52.716;6.696;2022-09-09T13:52:45;19.80;99.90
65692;DHT22;52411;52.716;6.696;2022-09-09T13:55:11;19.50;99.90
65692;DHT22;52411;52.716;6.696;2022-09-09T13:57:36;19.30;99.90
65692;DHT22;52411;52.716;6.696;2022-09-09T14:00:03;19.00;99.90
65692;DHT22;52411;52.716;6.696;2022-09-09T14:02:28;18.90;99.90
65692;DHT22;52411;52.716;6.696;2022-09-09T14:04:56;18.80;99.90
65692;DHT22;52411;52.716;6.696;2022-09-09T14:07:22;18.90;99.90
65692;DHT22;52411;52.716;6.696;2022-09-09T14:09:47;19.20;99.90
65692;DHT22;52411;52.716;6.696;2022-09-09T14:12:15;19.60;99.90
65692;DHT22;52411;52.716;6.696;2022-09-09T14:14:42;20.00;99.90
65692;DHT22;52411;52.716;6.696;2022-09-09T14:17:08;20.40;99.90
65692;DHT22;52411;52.716;6.696;2022-09-09T14:19:34;20.70;99.90
65692;DHT22;52411;52.716;6.696;2022-09-09T14:22:00;20.90;99.90
65692;DHT22;52411;52.716;6.696;2022-09-09T14:24:26;21.20;99.90
65692;DHT22;52411;52.716;6.696;2022-09-09T14:26:53;21.10;99.90
65692;DHT22;52411;52.716;6.696;2022-09-09T14:29:19;21.30;99.90
65692;DHT22;52411;52.716;6.696;2022-09-09T14:31:44;21.30;99.90
65692;DHT22;52411;52.716;6.696;2022-09-09T14:34:10;21.20;99.90
65692;DHT22;52411;52.716;6.696;2022-09-09T14:36:37;21.20;99.90
65692;DHT22;52411;52.716;6.696;2022-09-09T14:39:03;21.20;99.90
65692;DHT22;52411;52.716;6.696;2022-09-09T14:41:29;21.40;99.90
65692;DHT22;52411;52.716;6.696;2022-09-09T14:43:55;21.30;99.90
65692;DHT22;52411;52.716;6.696;2022-09-09T14:46:21;21.20;99.90
65692;DHT22;52411;52.716;6.696;2022-09-09T14:48:47;21.10;99.90
65692;DHT22;52411;52.716;6.696;2022-09-09T14:51:21;21.30;99.90
65692;DHT22;52411;52.716;6.696;2022-09-09T14:53:50;21.60;99.90
65692;DHT22;52411;52.716;6.696;2022-09-09T14:56:18;21.50;99.90
65692;DHT22;52411;52.716;6.696;2022-09-09T14:58:45;21.40;99.90
65692;DHT22;52411;52.716;6.696;2022-09-09T15:01:14;21.20;99.90
65692;DHT22;52411;52.716;6.696;2022-09-09T15:03:41;20.90;99.90
65692;DHT22;52411;52.716;6.696;2022-09-09T15:06:08;20.70;99.90
65692;DHT22;52411;52.716;6.696;2022-09-09T15:08:35;20.40;99.90
65692;DHT22;52411;52.716;6.696;2022-09-09T15:11:03;20.40;99.90
65692;DHT22;52411;52.716;6.696;2022-09-09T15:13:29;20.30;99.90
65692;DHT22;52411;52.716;6.696;2022-09-09T15:15:55;20.30;99.90
65692;DHT22;52411;52.716;6.696;2022-09-09T15:18:21;20.50;99.90
65692;DHT22;52411;52.716;6.696;2022-09-09T15:20:47;20.60;99.90
65692;DHT22;52411;52.716;6.696;2022-09-09T15:23:13;20.50;99.90
65692;DHT22;52411;52.716;6.696;2022-09-09T15:26:00;20.20;99.90
65692;DHT22;52411;52.716;6.696;2022-09-09T15:28:25;20.00;99.90
65692;DHT22;52411;52.716;6.696;2022-09-09T15:30:52;19.80;99.90
65692;DHT22;52411;52.716;6.696;2022-09-09T15:33:19;19.60;99.90
65692;DHT22;52411;52.716;6.696;2022-09-09T15:35:45;19.60;99.90
65692;DHT22;52411;52.716;6.696;2022-09-09T15:38:10;19.60;99.90
65692;DHT22;52411;52.716;6.696;2022-09-09T15:40:39;19.70;99.90
65692;DHT22;52411;52.716;6.696;2022-09-09T15:43:05;19.70;99.90
65692;DHT22;52411;52.716;6.696;2022-09-09T15:45:32;19.70;99.90
65692;DHT22;52411;52.716;6.696;2022-09-09T15:48:00;19.70;99.90
65692;DHT22;52411;52.716;6.696;2022-09-09T15:50:25;19.80;99.90
65692;DHT22;52411;52.716;6.696;2022-09-09T15:52:51;20.10;99.90
65692;DHT22;52411;52.716;6.696;2022-09-09T15:55:18;20.60;99.90
65692;DHT22;52411;52.716;6.696;2022-09-09T15:57:46;21.30;99.90
65692;DHT22;52411;52.716;6.696;2022-09-09T16:00:12;22.00;99.90
65692;DHT22;52411;52.716;6.696;2022-09-09T16:02:39;22.30;99.90
65692;DHT22;52411;52.716;6.696;2022-09-09T16:05:05;22.30;99.90
65692;DHT22;52411;52.716;6.696;2022-09-09T16:07:31;22.00;99.90
65692;DHT22;52411;52.716;6.696;2022-09-09T16:09:56;21.80;99.90
65692;DHT22;52411;52.716;6.696;2022-09-09T16:12:22;21.80;99.90
65692;DHT22;52411;52.716;6.696;2022-09-09T16:14:48;21.80;99.90
65692;DHT22;52411;52.716;6.696;2022-09-09T16:17:13;21.50;99.90
65692;DHT22;52411;52.716;6.696;2022-09-09T16:19:40;21.30;99.90
65692;DHT22;52411;52.716;6.696;2022-09-09T16:22:06;21.00;99.90
65692;DHT22;52411;52.716;6.696;2022-09-09T16:24:32;20.70;99.90
65692;DHT22;52411;52.716;6.696;2022-09-09T16:26:58;20.50;99.90
65692;DHT22;52411;52.716;6.696;2022-09-09T16:29:24;20.40;99.90
65692;DHT22;52411;52.716;6.696;2022-09-09T16:31:53;20.30;99.90
65692;DHT22;52411;52.716;6.696;2022-09-09T16:34:19;20.20;99.90
65692;DHT22;52411;52.716;6.696;2022-09-09T16:36:47;20.20;99.90
65692;DHT22;52411;52.716;6.696;2022-09-09T16:39:18;20.20;99.90
65692;DHT22;52411;52.716;6.696;2022-09-09T16:41:45;20.30;99.90
65692;DHT22;52411;52.716;6.696;2022-09-09T16:44:12;20.10;99.90
65692;DHT22;52411;52.716;6.696;2022-09-09T16:46:40;20.10;99.90
65692;DHT22;52411;52.716;6.696;2022-09-09T16:49:11;19.90;99.90
65692;DHT22;52411;52.716;6.696;2022-09-09T16:51:43;19.90;99.90
65692;DHT22;52411;52.716;6.696;2022-09-09T16:54:10;19.80;99.90
65692;DHT22;52411;52.716;6.696;2022-09-09T16:56:38;19.70;99.90
65692;DHT22;52411;52.716;6.696;2022-09-09T16:59:12;19.60;99.90
65692;DHT22;52411;52.716;6.696;2022-09-09T17:01:40;19.50;99.90
65692;DHT22;52411;52.716;6.696;2022-09-09T17:04:17;19.30;99.90
65692;DHT22;52411;52.716;6.696;2022-09-09T17:06:47;19.30;99.90
65692;DHT22;52411;52.716;6.696;2022-09-09T17:09:15;19.10;99.90
65692;DHT22;52411;52.716;6.696;2022-09-09T17:11:40;19.10;99.90
65692;DHT22;52411;52.716;6.696;2022-09-09T17:14:08;19.00;99.90
65692;DHT22;52411;52.716;6.696;2022-09-09T17:16:35;18.90;99.90
65692;DHT22;52411;52.716;6.696;2022-09-09T17:19:02;18.80;99.90
65692;DHT22;52411;52.716;6.696;2022-09-09T17:21:29;18.80;99.90
65692;DHT22;52411;52.716;6.696;2022-09-09T17:23:56;18.80;99.90